Time;durP1;ratioP1;P1;durP2;ratioP2;P2;SDS_P1;SDS_P2;PMS_P1;PMS_P2;Temp;Humidity;BMP_temperature;BMP_pressure;BME280_temperature;BME280_humidity;BME280_pressure;Samples;Min_cycle;Max_cycle;Signal;HPM_P1;HPM_P2
2022/03/14 00:01:36;;;;;;;4.40;4.20;;;;;;;10.14;70.61;101285.78;6081076;23;20018;-66
2022/03/14 00:04:03;;;;;;;5.57;5.35;;;;;;;10.17;70.59;101282.19;6088510;23;20024;-67
2022/03/14 00:06:30;;;;;;;4.50;4.30;;;;;;;9.90;69.68;101227.34;6088143;23;20072;-67
2022/03/14 00:09:00;;;;;;;5.65;5.45;;;;;;;10.22;70.49;101280.19;6057770;23;20006;-66
2022/03/14 00:11:27;;;;;;;4.10;3.90;;;;;;;10.23;70.55;101296.81;6083199;23;20040;-67
2022/03/14 00:13:58;;;;;;;5.38;5.18;;;;;;;9.97;70.83;101255.00;6079161;23;20006;-66
2022/03/14 00:16:28;;;;;;;3.70;3.60;;;;;;;10.13;71.46;101284.06;6087836;23;20024;-67
2022/03/14 00:18:57;;;;;;;5.10;4.90;;;;;;;10.19;71.02;101296.09;6082287;23;20484;-66
2022/03/14 00:21:25;;;;;;;4.20;4.00;;;;;;;10.02;71.44;101285.41;6079138;23;20014;-66
2022/03/14 00:23:54;;;;;;;4.80;4.60;;;;;;;10.14;71.20;101290.16;6086599;23;20030;-67
2022/03/14 00:26:22;;;;;;;4.18;3.97;;;;;;;10.09;71.12;101285.09;6093990;23;20080;-66
2022/03/14 00:28:49;;;;;;;5.28;4.97;;;;;;;10.06;71.47;101305.34;6090221;23;20099;-67
2022/03/14 00:31:16;;;;;;;4.30;4.10;;;;;;;10.04;71.77;101322.91;6095455;23;20026;-66
2022/03/14 00:33:42;;;;;;;4.13;3.92;;;;;;;9.75;72.30;101272.50;6084390;23;20572;-67
2022/03/14 00:36:09;;;;;;;3.85;3.75;;;;;;;10.03;72.25;101308.13;6091698;23;20032;-66
2022/03/14 00:38:37;;;;;;;4.13;3.92;;;;;;;10.03;73.51;101310.75;6075261;23;20034;-66
2022/03/14 00:41:05;;;;;;;5.55;5.35;;;;;;;10.02;72.33;101314.25;6055426;23;20026;-66
2022/03/14 00:43:33;;;;;;;4.28;4.07;;;;;;;9.82;72.68;101286.22;6058068;23;20040;-67
2022/03/14 00:45:59;;;;;;;5.80;5.55;;;;;;;10.05;72.54;101324.63;6056099;23;20018;-67
2022/03/14 00:48:26;;;;;;;4.40;4.20;;;;;;;9.78;71.41;101288.09;6069949;23;20066;-66
2022/03/14 00:50:53;;;;;;;5.50;5.30;;;;;;;10.01;72.66;101329.16;6058826;23;20649;-67
2022/03/14 00:53:20;;;;;;;3.95;3.80;;;;;;;9.83;72.95;101309.75;6044699;23;20409;-67
2022/03/14 00:55:47;;;;;;;3.78;3.67;;;;;;;9.82;72.65;101308.03;6078833;23;20017;-67
2022/03/14 00:58:14;;;;;;;4.28;4.07;;;;;;;10.03;72.41;101348.28;6056794;23;20029;-67
2022/03/14 01:00:41;;;;;;;4.45;4.25;;;;;;;9.75;73.36;101307.44;6055882;23;20086;-67
2022/03/14 01:03:07;;;;;;;4.20;4.00;;;;;;;10.05;72.46;101353.50;6044174;23;20026;-66
2022/03/14 01:05:34;;;;;;;4.30;4.10;;;;;;;9.84;72.65;101319.31;6061008;23;20017;-67
2022/03/14 01:08:01;;;;;;;5.45;5.18;;;;;;;9.82;72.32;101321.13;6028237;23;20150;-67
2022/03/14 01:10:28;;;;;;;3.80;3.70;;;;;;;9.79;72.66;101321.28;6061688;23;20077;-67
2022/03/14 01:12:54;;;;;;;5.70;5.47;;;;;;;9.87;72.98;101339.31;6049947;23;20045;-66
2022/03/14 01:15:21;;;;;;;4.03;3.83;;;;;;;10.02;72.95;101378.03;6052978;23;20039;-67
2022/03/14 01:17:47;;;;;;;4.03;3.83;;;;;;;9.80;73.20;101343.94;6036493;23;20084;-67
2022/03/14 01:20:14;;;;;;;4.10;3.90;;;;;;;9.79;74.55;101340.47;6060592;23;20025;-67
2022/03/14 01:22:40;;;;;;;4.10;3.90;;;;;;;9.95;75.25;101373.97;6048337;23;20088;-67
2022/03/14 01:25:07;;;;;;;4.10;3.90;;;;;;;9.92;74.77;101371.44;6052766;23;20760;-67
2022/03/14 01:27:34;;;;;;;4.55;4.35;;;;;;;9.76;74.88;101351.09;6060647;23;20613;-67
2022/03/14 01:30:00;;;;;;;5.32;5.13;;;;;;;9.64;76.38;101342.81;6051443;23;20566;-67
2022/03/14 01:32:27;;;;;;;3.92;3.78;;;;;;;9.83;77.32;101377.91;6078193;23;20022;-67
2022/03/14 01:34:53;;;;;;;5.20;5.00;;;;;;;9.78;77.36;101382.47;6055714;23;20416;-66
2022/03/14 01:37:19;;;;;;;4.18;3.97;;;;;;;9.75;77.87;101383.44;6053197;23;20025;-67
2022/03/14 01:39:46;;;;;;;4.00;3.80;;;;;;;9.59;77.99;101350.84;6077168;23;21356;-67
2022/03/14 01:42:19;;;;;;;4.45;4.25;;;;;;;9.70;79.28;101379.28;6091174;23;20378;-68
2022/03/14 01:44:47;;;;;;;4.00;3.80;;;;;;;9.67;80.74;101379.41;6079761;23;20034;-66
2022/03/14 01:47:14;;;;;;;3.90;3.70;;;;;;;9.67;79.87;101384.66;6088290;23;20053;-66
2022/03/14 01:49:42;;;;;;;4.03;3.83;;;;;;;9.67;79.69;101408.25;6085254;23;20049;-66
2022/03/14 01:52:09;;;;;;;10.35;4.00;;;;;;;9.54;80.91;101389.47;6083035;23;20053;-66
2022/03/14 01:54:37;;;;;;;4.03;3.83;;;;;;;9.43;81.86;101381.16;6091769;23;20405;-65
2022/03/14 01:57:05;;;;;;;5.78;5.50;;;;;;;9.55;82.84;101405.16;6082616;23;20659;-66
2022/03/14 01:59:33;;;;;;;3.85;3.75;;;;;;;9.51;83.05;101411.41;6084496;23;20502;-66
2022/03/14 02:02:00;;;;;;;5.35;5.15;;;;;;;9.48;84.14;101408.91;6081328;23;20014;-65
2022/03/14 02:04:27;;;;;;;3.78;3.67;;;;;;;9.46;84.61;101410.75;6085818;23;20021;-66
2022/03/14 02:06:54;;;;;;;5.18;4.97;;;;;;;9.29;85.44;101400.00;6083545;23;20030;-65
2022/03/14 02:09:24;;;;;;;4.10;3.90;;;;;;;9.25;86.31;101390.53;6085943;23;20010;-65
2022/03/14 02:12:04;;;;;;;4.82;4.63;;;;;;;9.15;87.21;101388.22;6098948;23;20099;-68
2022/03/14 02:14:30;;;;;;;3.83;3.72;;;;;;;9.35;87.81;101424.19;6062148;23;20037;-65
2022/03/14 02:16:57;;;;;;;9.13;5.65;;;;;;;9.33;87.14;101419.94;6081867;23;20036;-67
2022/03/14 02:19:23;;;;;;;4.07;3.88;;;;;;;9.32;87.83;101428.69;6083116;23;20008;-65
2022/03/14 02:21:49;;;;;;;4.63;4.43;;;;;;;9.22;89.48;101422.06;6088081;23;20042;-64
2022/03/14 02:24:16;;;;;;;4.00;3.80;;;;;;;9.06;89.62;101399.06;6082605;23;20017;-66
2022/03/14 02:26:44;;;;;;;4.40;4.20;;;;;;;9.13;89.20;101403.16;6093478;23;20463;-65
2022/03/14 02:29:12;;;;;;;3.85;3.75;;;;;;;9.23;91.19;101432.50;6083033;23;20630;-66
2022/03/14 02:31:38;;;;;;;3.78;3.67;;;;;;;8.94;91.79;101381.13;6079803;23;20021;-66
2022/03/14 02:34:08;;;;;;;4.95;4.75;;;;;;;9.16;92.72;101442.34;6088179;23;20084;-66
2022/03/14 02:36:39;;;;;;;3.83;3.72;;;;;;;8.69;93.31;101370.66;6082849;23;20057;-65
2022/03/14 02:39:07;;;;;;;5.20;4.90;;;;;;;8.89;94.11;101411.84;6080878;23;20402;-65
2022/03/14 02:41:33;;;;;;;3.90;3.80;;;;;;;9.07;94.81;101445.25;6088853;23;20109;-65
2022/03/14 02:44:01;;;;;;;5.38;5.18;;;;;;;8.52;96.26;101379.91;6074368;23;20693;-66
2022/03/14 02:46:28;;;;;;;4.00;3.80;;;;;;;8.59;96.64;101399.72;6089924;23;20096;-65
2022/03/14 02:48:54;;;;;;;5.40;5.20;;;;;;;8.30;98.26;101365.75;6087003;23;20077;-65
2022/03/14 02:51:20;;;;;;;3.88;3.67;;;;;;;8.84;98.62;101463.47;6085112;23;20046;-65
2022/03/14 02:53:47;;;;;;;4.00;3.80;;;;;;;8.59;99.55;101436.34;6089695;23;20081;-65
2022/03/14 02:56:13;;;;;;;4.10;3.90;;;;;;;8.73;100.00;101467.31;6082052;23;20049;-66
2022/03/14 02:58:41;;;;;;;3.95;3.80;;;;;;;8.58;100.00;101450.34;6083315;23;20018;-65
2022/03/14 03:01:08;;;;;;;3.70;3.60;;;;;;;8.74;100.00;101474.28;6084679;23;20601;-66
2022/03/14 03:03:35;;;;;;;3.72;3.63;;;;;;;8.68;100.00;101466.63;6087734;23;20048;-66
2022/03/14 03:06:03;;;;;;;5.40;5.20;;;;;;;8.60;100.00;101460.78;6083226;23;20036;-66
2022/03/14 03:08:29;;;;;;;3.50;3.40;;;;;;;8.78;100.00;101485.50;6086373;23;20022;-66
2022/03/14 03:10:59;;;;;;;5.50;5.30;;;;;;;8.58;100.00;101462.59;6082850;23;20036;-66
2022/03/14 03:13:27;;;;;;;3.85;3.75;;;;;;;8.61;100.00;101474.69;6084949;23;20030;-66
2022/03/14 03:15:54;;;;;;;5.40;5.20;;;;;;;8.65;100.00;101481.56;6096555;23;20010;-66
2022/03/14 03:18:22;;;;;;;3.72;3.63;;;;;;;8.75;100.00;101509.13;6091765;23;20033;-68
2022/03/14 03:20:48;;;;;;;4.35;4.20;;;;;;;8.76;100.00;101514.34;6086080;23;20025;-66
2022/03/14 03:23:15;;;;;;;3.70;3.60;;;;;;;8.77;100.00;101510.78;6084768;23;20077;-67
2022/03/14 03:25:41;;;;;;;3.88;3.75;;;;;;;8.49;100.00;101466.31;6076531;23;20022;-66
2022/03/14 03:28:08;;;;;;;4.40;4.20;;;;;;;8.77;100.00;101520.41;6079740;23;20046;-65
2022/03/14 03:30:34;;;;;;;4.20;4.00;;;;;;;8.46;100.00;101474.28;6072227;23;20021;-65
2022/03/14 03:33:00;;;;;;;5.55;5.35;;;;;;;8.61;100.00;101524.41;6078524;23;20036;-65
2022/03/14 03:35:27;;;;;;;3.70;3.60;;;;;;;8.54;100.00;101492.38;6087232;23;20033;-66
2022/03/14 03:37:54;;;;;;;5.85;5.55;;;;;;;8.47;100.00;101496.91;6054396;23;20054;-66
2022/03/14 03:40:20;;;;;;;3.78;3.63;;;;;;;8.48;100.00;101502.97;6060325;23;20268;-65
2022/03/14 03:42:47;;;;;;;3.80;3.70;;;;;;;8.72;100.00;101549.34;6028522;23;20093;-65
2022/03/14 03:45:13;;;;;;;4.00;3.80;;;;;;;8.50;100.00;101506.41;6056228;23;20018;-65
2022/03/14 03:47:43;;;;;;;3.70;3.60;;;;;;;8.54;100.00;101516.75;6054669;23;20397;-65
2022/03/14 03:50:10;;;;;;;3.80;3.70;;;;;;;8.53;100.00;101519.41;6049757;23;20509;-65
2022/03/14 03:52:37;;;;;;;4.43;4.22;;;;;;;8.71;100.00;101554.63;6052826;23;20085;-65
2022/03/14 03:55:04;;;;;;;5.05;4.85;;;;;;;8.45;100.00;101519.63;6055670;23;20026;-65
2022/03/14 03:57:35;;;;;;;4.20;4.00;;;;;;;8.71;100.00;101568.56;6054398;23;20027;-65
2022/03/14 04:00:07;;;;;;;5.45;5.25;;;;;;;8.38;100.00;101518.09;6060958;23;20099;-65
2022/03/14 04:02:39;;;;;;;3.70;3.60;;;;;;;8.68;100.00;101580.88;6032347;23;20026;-65
2022/03/14 04:05:06;;;;;;;18.08;17.17;;;;;;;8.65;100.00;101587.06;5990657;23;20403;-65
2022/03/14 04:07:34;;;;;;;4.50;4.30;;;;;;;8.62;100.00;101579.31;6029850;23;20463;-65
2022/03/14 04:10:03;;;;;;;5.28;5.07;;;;;;;8.69;100.00;101590.44;6056600;23;20030;-66
2022/03/14 04:12:29;;;;;;;4.07;3.88;;;;;;;8.49;100.00;101564.88;6058245;23;20496;-65
2022/03/14 04:14:57;;;;;;;5.57;5.35;;;;;;;8.67;100.00;101605.34;6056032;23;20042;-65
2022/03/14 04:17:25;;;;;;;3.67;3.58;;;;;;;8.65;100.00;101604.53;6053989;23;20352;-67
2022/03/14 04:19:53;;;;;;;4.95;4.75;;;;;;;8.58;100.00;101614.34;6065596;23;20034;-65
2022/03/14 04:22:19;;;;;;;3.80;3.70;;;;;;;8.37;100.00;101566.91;6058966;23;20026;-66
2022/03/14 04:24:46;;;;;;;4.00;3.80;;;;;;;8.61;100.00;101602.91;6061846;23;20519;-67
2022/03/14 04:27:12;;;;;;;3.75;3.65;;;;;;;8.62;100.00;101613.34;6055021;23;20026;-65
2022/03/14 04:29:39;;;;;;;4.00;3.80;;;;;;;8.54;100.00;101602.25;6057695;23;20007;-67
2022/03/14 04:32:06;;;;;;;6.18;5.88;;;;;;;8.27;100.00;101562.00;6055544;23;20503;-67
2022/03/14 04:34:32;;;;;;;3.70;3.60;;;;;;;8.58;100.00;101628.25;6058596;23;20010;-67
2022/03/14 04:36:59;;;;;;;5.85;5.55;;;;;;;8.54;100.00;101625.78;6053645;23;20467;-67
2022/03/14 04:39:25;;;;;;;3.63;3.53;;;;;;;7.48;100.00;101454.41;6106060;23;20018;-67
2022/03/14 04:41:53;;;;;;;5.05;4.85;;;;;;;8.34;100.00;101611.47;6081923;23;20053;-67
2022/03/14 04:44:21;;;;;;;3.70;3.60;;;;;;;8.49;100.00;101646.81;6113043;23;20077;-67
2022/03/14 04:46:48;;;;;;;3.75;3.65;;;;;;;8.15;100.00;101594.56;6067106;23;20015;-67
2022/03/14 04:49:15;;;;;;;3.80;3.65;;;;;;;8.50;100.00;101648.56;6114961;23;20037;-67
2022/03/14 04:51:42;;;;;;;4.10;3.90;;;;;;;8.06;100.00;101581.75;6062399;23;20034;-67
2022/03/14 04:54:08;;;;;;;3.60;3.50;;;;;;;8.50;100.00;101652.91;6093199;23;21299;-67
2022/03/14 04:56:34;;;;;;;3.72;3.63;;;;;;;8.51;100.00;101658.09;6084309;23;20096;-67
2022/03/14 04:59:01;;;;;;;5.38;5.18;;;;;;;8.34;100.00;101645.47;6095203;23;19998;-64
2022/03/14 05:01:27;;;;;;;4.05;3.85;;;;;;;8.48;100.00;101658.22;6078437;23;20627;-67
2022/03/14 05:03:54;;;;;;;4.00;3.80;;;;;;;8.49;100.00;101662.53;6114231;23;20043;-67
2022/03/14 05:06:21;;;;;;;3.55;3.45;;;;;;;8.48;100.00;101673.91;6086958;23;20041;-67
2022/03/14 05:08:48;;;;;;;4.10;3.90;;;;;;;8.37;100.00;101657.59;6116827;23;20138;-66
2022/03/14 05:11:14;;;;;;;3.90;3.70;;;;;;;8.07;100.00;101625.31;6076295;23;20360;-67
2022/03/14 05:13:44;;;;;;;3.78;3.67;;;;;;;8.43;100.00;101669.69;6124114;23;20027;-67
2022/03/14 05:16:10;;;;;;;3.70;3.60;;;;;;;8.39;100.00;101677.56;6084924;23;20045;-66
2022/03/14 05:18:38;;;;;;;3.70;3.60;;;;;;;8.04;100.00;101647.16;6114291;23;20083;-67
2022/03/14 05:21:05;;;;;;;6.10;5.80;;;;;;;8.30;100.00;101693.53;6063630;23;20025;-67
2022/03/14 05:23:31;;;;;;;4.88;4.68;;;;;;;8.31;100.00;101697.84;6111885;23;20069;-67
2022/03/14 05:25:59;;;;;;;5.28;5.07;;;;;;;8.27;100.00;101700.59;6075254;23;20059;-66
2022/03/14 05:28:25;;;;;;;3.70;3.60;;;;;;;8.22;100.00;101681.53;6109495;23;20111;-66
2022/03/14 05:30:53;;;;;;;5.20;5.00;;;;;;;8.04;100.00;101672.44;6075343;23;20010;-66
2022/03/14 05:33:20;;;;;;;3.58;3.47;;;;;;;8.18;100.00;101709.56;6081838;23;20710;-67
2022/03/14 05:35:47;;;;;;;3.90;3.75;;;;;;;7.97;100.00;101680.44;6067311;23;20034;-66
2022/03/14 05:38:14;;;;;;;3.63;3.53;;;;;;;7.26;100.00;101560.34;6071973;23;20111;-68
2022/03/14 05:40:41;;;;;;;4.25;4.05;;;;;;;8.23;100.00;101732.97;6085445;23;20026;-67
2022/03/14 05:43:10;;;;;;;3.95;3.78;;;;;;;8.15;100.00;101722.69;6083399;23;20419;-64
2022/03/14 05:45:36;;;;;;;3.80;3.70;;;;;;;8.19;100.00;101735.63;6038009;23;20038;-65
2022/03/14 05:48:03;;;;;;;5.18;4.97;;;;;;;8.02;100.00;101719.53;6080483;23;20034;-64
2022/03/14 05:50:29;;;;;;;3.90;3.70;;;;;;;8.02;100.00;101706.47;6077646;23;20036;-65
2022/03/14 05:52:56;;;;;;;5.95;5.68;;;;;;;8.14;100.00;101739.28;6083699;23;20013;-66
2022/03/14 05:55:22;;;;;;;3.80;3.70;;;;;;;7.99;100.00;101715.22;6065942;23;20026;-65
2022/03/14 05:57:49;;;;;;;3.97;3.83;;;;;;;7.96;100.00;101714.47;6081343;23;20420;-65
2022/03/14 06:00:23;;;;;;;3.67;3.58;;;;;;;7.93;100.00;101712.78;6076428;23;20443;-66
2022/03/14 06:02:54;;;;;;;4.20;4.03;;;;;;;7.94;100.00;101722.34;6083157;23;20024;-66
2022/03/14 06:05:22;;;;;;;3.60;3.50;;;;;;;8.04;100.00;101753.47;6093332;23;20029;-65
2022/03/14 06:07:49;;;;;;;4.15;3.95;;;;;;;7.97;100.00;101752.78;6091588;23;20085;-65
2022/03/14 06:10:16;;;;;;;3.60;3.50;;;;;;;7.82;100.00;101722.66;6092836;23;20368;-67
2022/03/14 06:12:44;;;;;;;3.70;3.60;;;;;;;7.96;100.00;101753.69;6090900;23;20034;-66
2022/03/14 06:15:12;;;;;;;3.70;3.60;;;;;;;8.03;100.00;101765.69;6074458;23;20010;-66
2022/03/14 06:17:43;;;;;;;3.70;3.60;;;;;;;7.92;100.00;101744.19;6081864;23;20093;-67
2022/03/14 06:20:12;;;;;;;3.95;3.78;;;;;;;7.76;100.00;101736.72;6073204;23;20046;-66
2022/03/14 06:22:40;;;;;;;3.80;3.63;;;;;;;7.67;100.00;101718.63;6081192;23;20093;-66
2022/03/14 06:25:08;;;;;;;4.80;4.60;;;;;;;8.03;100.00;101770.91;6086703;23;20521;-65
2022/03/14 06:27:35;;;;;;;4.00;3.80;;;;;;;8.08;100.00;101768.19;6081258;23;20051;-66
2022/03/14 06:30:02;;;;;;;5.63;5.40;;;;;;;7.87;100.00;101739.06;6052265;23;20579;-65
2022/03/14 06:32:39;;;;;;;3.80;3.70;;;;;;;8.00;100.00;101752.72;6084108;23;20025;-65
2022/03/14 06:35:09;;;;;;;4.68;4.47;;;;;;;8.11;100.00;101783.81;6081391;23;20013;-65
2022/03/14 06:37:35;;;;;;;3.65;3.55;;;;;;;8.08;100.00;101786.47;6065239;23;20030;-65
2022/03/14 06:40:03;;;;;;;5.35;5.15;;;;;;;8.00;99.96;101755.31;6109144;23;20018;-66
2022/03/14 06:42:29;;;;;;;3.75;3.60;;;;;;;8.12;99.22;101785.53;6083314;23;20086;-65
2022/03/14 06:45:01;;;;;;;5.15;4.95;;;;;;;7.09;99.75;101605.94;6103695;23;20025;-65
2022/03/14 06:47:27;;;;;;;3.80;3.70;;;;;;;8.22;98.79;101792.25;6069771;23;20040;-65
2022/03/14 06:49:54;;;;;;;5.80;5.55;;;;;;;8.25;98.33;101799.16;6081994;23;20088;-65
2022/03/14 06:52:21;;;;;;;4.45;4.25;;;;;;;8.28;98.37;101799.94;6086677;23;20022;-66
2022/03/14 06:54:47;;;;;;;4.03;3.83;;;;;;;8.31;98.95;101801.63;6068403;23;20018;-66
2022/03/14 06:57:14;;;;;;;3.60;3.50;;;;;;;8.19;97.33;101808.84;6107904;23;20704;-66
2022/03/14 06:59:40;;;;;;;4.10;3.90;;;;;;;8.27;96.57;101807.81;6079605;23;20022;-66
2022/03/14 07:02:07;;;;;;;4.50;4.30;;;;;;;8.19;97.09;101782.72;6096132;23;20033;-65
2022/03/14 07:04:35;;;;;;;3.90;3.75;;;;;;;8.39;96.70;101810.13;6088035;23;20013;-65
2022/03/14 07:07:03;;;;;;;5.55;5.35;;;;;;;8.26;97.28;101780.81;6112899;23;20049;-66
2022/03/14 07:09:31;;;;;;;4.53;4.32;;;;;;;8.47;96.82;101820.44;6083241;23;20505;-66
2022/03/14 07:11:58;;;;;;;5.30;5.10;;;;;;;8.57;95.70;101824.53;6107373;23;20060;-65
2022/03/14 07:14:24;;;;;;;3.78;3.67;;;;;;;8.17;95.00;101754.88;6072317;23;20034;-65
2022/03/14 07:16:51;;;;;;;4.45;4.25;;;;;;;8.52;95.39;101819.44;6103970;23;20029;-65
2022/03/14 07:19:18;;;;;;;4.30;4.10;;;;;;;8.64;95.01;101833.97;6075657;23;20020;-65
2022/03/14 07:21:44;;;;;;;4.00;3.80;;;;;;;8.73;95.99;101841.56;6097520;23;20100;-65
2022/03/14 07:24:11;;;;;;;3.67;3.58;;;;;;;8.65;94.53;101822.56;6063671;23;20505;-65
2022/03/14 07:26:38;;;;;;;4.00;3.80;;;;;;;8.39;92.85;101818.81;6114728;23;20032;-65
2022/03/14 07:29:04;;;;;;;5.35;5.15;;;;;;;8.63;92.90;101852.31;6052777;23;20637;-66
2022/03/14 07:31:31;;;;;;;4.25;4.05;;;;;;;8.71;93.46;101853.81;6111688;23;20463;-65
2022/03/14 07:33:57;;;;;;;5.32;5.13;;;;;;;8.79;93.29;101864.94;6054109;23;20030;-68
2022/03/14 07:36:24;;;;;;;3.90;3.80;;;;;;;8.65;92.22;101827.81;6081854;23;20021;-66
2022/03/14 07:38:50;;;;;;;4.93;4.72;;;;;;;8.97;91.87;101868.84;6086231;23;20024;-66
2022/03/14 07:41:17;;;;;;;4.03;3.83;;;;;;;8.93;91.51;101858.50;6050689;23;20046;-66
2022/03/14 07:43:43;;;;;;;4.00;3.80;;;;;;;8.99;91.25;101876.66;6048653;23;20038;-66
2022/03/14 07:46:10;;;;;;;4.20;4.00;;;;;;;9.05;91.41;101888.72;6052969;23;20041;-68
2022/03/14 07:48:36;;;;;;;4.03;3.83;;;;;;;9.11;91.26;101891.19;6054782;23;20094;-68
2022/03/14 07:51:03;;;;;;;5.95;5.65;;;;;;;9.05;91.00;101868.63;6032374;23;20018;-68
2022/03/14 07:53:31;;;;;;;4.05;3.85;;;;;;;9.18;89.77;101895.34;6034023;23;20038;-68
2022/03/14 07:55:57;;;;;;;5.80;5.55;;;;;;;9.23;88.63;101903.94;6045560;23;20014;-68
2022/03/14 07:58:23;;;;;;;4.15;3.95;;;;;;;9.29;88.75;101909.00;6058045;23;20105;-68
2022/03/14 08:00:56;;;;;;;6.00;5.70;;;;;;;9.37;89.49;101914.06;6051842;23;20376;-67
2022/03/14 08:03:23;;;;;;;3.95;3.80;;;;;;;9.40;89.85;101911.31;6079634;23;20077;-70
2022/03/14 08:05:55;;;;;;;4.60;4.43;;;;;;;9.45;88.92;101916.47;6035265;23;20086;-68
2022/03/14 08:08:23;;;;;;;3.75;3.65;;;;;;;9.36;88.85;101905.34;6053313;23;20033;-66
2022/03/14 08:10:50;;;;;;;4.30;4.15;;;;;;;9.56;89.22;101937.97;6007400;23;20089;-66
2022/03/14 08:13:19;;;;;;;4.22;4.03;;;;;;;9.33;88.13;101926.38;6055116;23;20010;-65
2022/03/14 08:15:45;;;;;;;4.20;4.00;;;;;;;9.31;88.71;101943.03;6023796;23;20078;-66
2022/03/14 08:18:13;;;;;;;4.65;4.45;;;;;;;9.37;88.10;101938.47;6059112;23;20027;-67
2022/03/14 08:20:39;;;;;;;4.18;3.97;;;;;;;9.45;88.32;101940.03;6024778;23;20077;-68
2022/03/14 08:23:07;;;;;;;4.88;4.68;;;;;;;9.51;87.99;101911.91;6053250;23;20129;-69
2022/03/14 08:25:36;;;;;;;3.88;3.78;;;;;;;9.67;86.35;101929.81;6058012;23;20032;-66
2022/03/14 08:28:03;;;;;;;5.57;5.35;;;;;;;9.73;85.33;101937.50;6052831;23;20030;-67
2022/03/14 08:30:29;;;;;;;4.10;3.90;;;;;;;9.94;85.16;101944.75;6031076;23;20085;-67
2022/03/14 08:32:57;;;;;;;5.35;5.15;;;;;;;9.84;84.85;101908.34;6053497;23;20089;-65
2022/03/14 08:35:25;;;;;;;3.83;3.72;;;;;;;10.01;83.23;101919.19;6027840;23;20018;-65
2022/03/14 08:37:53;;;;;;;4.82;4.63;;;;;;;10.28;82.39;101958.59;6058745;23;20086;-65
2022/03/14 08:40:22;;;;;;;4.00;3.80;;;;;;;10.30;82.64;101952.44;6022493;23;20358;-67
2022/03/14 08:42:52;;;;;;;4.57;4.38;;;;;;;10.66;81.27;101952.16;6054649;23;20077;-65
2022/03/14 08:45:23;;;;;;;4.20;4.00;;;;;;;10.73;79.42;101958.09;6059670;23;20046;-66
2022/03/14 08:47:50;;;;;;;4.22;4.03;;;;;;;10.44;78.75;101954.63;6048473;23;20084;-66
2022/03/14 08:50:17;;;;;;;4.10;3.90;;;;;;;10.51;79.66;101971.91;6054990;23;20275;-64
2022/03/14 08:52:45;;;;;;;4.20;4.00;;;;;;;10.51;79.27;101984.19;6046323;23;20104;-66
2022/03/14 08:55:13;;;;;;;4.40;4.20;;;;;;;10.63;79.79;101988.19;6041652;23;21339;-66
2022/03/14 08:57:41;;;;;;;4.10;3.90;;;;;;;10.16;79.59;101957.19;6057462;23;20221;-66
2022/03/14 09:00:08;;;;;;;4.85;4.65;;;;;;;10.10;80.14;101968.75;6049754;23;20018;-67
2022/03/14 09:02:36;;;;;;;3.97;3.78;;;;;;;10.25;80.33;101977.94;6058557;23;20037;-67
2022/03/14 09:05:03;;;;;;;5.55;5.30;;;;;;;10.37;79.90;101992.47;6056366;23;20022;-64
2022/03/14 09:07:30;;;;;;;4.15;3.95;;;;;;;10.00;79.70;101946.31;6062296;23;20080;-65
2022/03/14 09:10:06;;;;;;;5.40;5.20;;;;;;;9.99;78.38;101942.84;6042057;23;20020;-69
2022/03/14 09:12:33;;;;;;;4.20;4.00;;;;;;;10.38;78.95;102016.06;6052278;23;20092;-66
2022/03/14 09:15:01;;;;;;;5.80;5.55;;;;;;;10.76;78.92;102006.13;6027788;23;20067;-65
2022/03/14 09:17:28;;;;;;;4.10;3.90;;;;;;;10.68;76.13;102002.84;6059207;23;20234;-65
2022/03/14 09:19:54;;;;;;;5.07;4.88;;;;;;;10.43;76.56;101971.28;6027384;23;20179;-65
2022/03/14 09:22:22;;;;;;;4.30;4.10;;;;;;;10.69;75.50;102009.84;6059642;23;20023;-65
2022/03/14 09:24:48;;;;;;;4.55;4.35;;;;;;;10.82;75.82;102009.44;6053224;23;20073;-65
2022/03/14 09:27:15;;;;;;;3.80;3.60;;;;;;;10.81;75.82;102013.84;6054099;23;20446;-66
2022/03/14 09:29:42;;;;;;;4.20;4.00;;;;;;;10.72;75.04;102020.25;6063116;23;20021;-65
2022/03/14 09:32:08;;;;;;;4.70;4.50;;;;;;;10.69;75.82;102011.63;6018444;23;20022;-65
2022/03/14 09:34:37;;;;;;;4.10;3.90;;;;;;;10.36;75.26;101978.50;6058059;23;20028;-67
2022/03/14 09:37:04;;;;;;;5.57;5.38;;;;;;;10.51;75.12;102029.66;6049969;23;20026;-68
2022/03/14 09:39:32;;;;;;;4.25;4.05;;;;;;;10.58;76.15;102043.44;6045519;23;20077;-68
2022/03/14 09:42:01;;;;;;;5.45;5.25;;;;;;;10.60;76.11;102035.53;6054495;23;20056;-67
2022/03/14 09:44:29;;;;;;;4.05;3.85;;;;;;;10.88;75.07;102046.88;6052836;23;20026;-64
2022/03/14 09:47:00;;;;;;;5.97;5.70;;;;;;;10.74;73.05;102023.69;6047628;23;20576;-65
2022/03/14 09:49:28;;;;;;;4.00;3.80;;;;;;;10.74;74.23;102051.69;6061131;23;20025;-65
2022/03/14 09:51:55;;;;;;;5.38;5.18;;;;;;;9.98;72.48;101893.94;6052014;23;20034;-67
2022/03/14 09:54:21;;;;;;;4.20;4.00;;;;;;;11.21;72.15;102037.97;6059239;23;20036;-65
2022/03/14 09:56:57;;;;;;;5.38;5.18;;;;;;;11.35;71.01;102062.00;6043486;23;20015;-65
2022/03/14 09:59:24;;;;;;;4.15;3.95;;;;;;;11.26;71.08;102047.38;6059692;23;20134;-65
2022/03/14 10:01:52;;;;;;;4.85;4.65;;;;;;;11.35;70.25;102017.34;6047859;23;20435;-65
2022/03/14 10:04:19;;;;;;;4.03;3.83;;;;;;;11.60;68.71;102029.63;6056185;23;20046;-65
2022/03/14 10:06:45;;;;;;;4.10;3.90;;;;;;;11.71;66.88;102067.78;6048671;23;20047;-64
2022/03/14 10:09:12;;;;;;;4.20;4.00;;;;;;;11.47;68.99;102035.31;6054900;23;20175;-62
2022/03/14 10:11:39;;;;;;;4.75;4.55;;;;;;;11.75;67.50;102093.06;6057080;23;20097;-66
2022/03/14 10:14:08;;;;;;;5.25;5.00;;;;;;;12.07;67.59;102074.44;6033297;23;20447;-64
2022/03/14 10:16:35;;;;;;;4.30;4.10;;;;;;;12.24;67.50;102073.81;6051447;23;20015;-64
2022/03/14 10:19:02;;;;;;;6.10;5.80;;;;;;;12.15;65.86;102017.13;6056673;23;20142;-64
2022/03/14 10:21:37;;;;;;;4.40;4.20;;;;;;;12.67;64.76;102083.59;6054864;23;20588;-67
2022/03/14 10:24:12;;;;;;;6.72;6.15;;;;;;;13.09;65.09;102082.81;6053869;23;20077;-66
2022/03/14 10:26:43;;;;;;;4.60;4.40;;;;;;;13.23;64.99;102092.78;6060164;23;20078;-64
2022/03/14 10:29:12;;;;;;;4.80;4.60;;;;;;;12.86;63.20;102093.41;6054877;23;20522;-67
2022/03/14 10:31:41;;;;;;;4.50;4.30;;;;;;;12.66;63.70;102088.91;6044197;23;20022;-64
2022/03/14 10:34:12;;;;;;;4.40;4.20;;;;;;;12.67;62.86;102106.41;6075449;23;20282;-67
2022/03/14 10:36:53;;;;;;;4.90;4.60;;;;;;;12.28;64.13;102112.28;6033186;23;20077;-66
2022/03/14 10:39:27;;;;;;;4.30;4.10;;;;;;;12.45;63.95;102077.41;6051775;23;20019;-66
2022/03/14 10:42:10;;;;;;;5.88;5.63;;;;;;;12.52;63.95;102098.19;6041970;23;20018;-66
2022/03/14 10:44:47;;;;;;;4.57;4.38;;;;;;;12.13;64.27;102109.28;6055777;23;20747;-66
2022/03/14 10:47:14;;;;;;;4.38;4.18;;;;;;;11.97;65.06;102082.66;6054817;23;21810;-66
2022/03/14 10:49:43;;;;;;;4.50;4.30;;;;;;;12.25;64.31;102102.72;6047372;23;20027;-67
2022/03/14 10:52:13;;;;;;;4.60;4.40;;;;;;;12.28;65.10;102080.69;6043024;23;20026;-64
2022/03/14 10:54:42;;;;;;;4.70;4.50;;;;;;;12.36;64.05;102107.59;6059809;23;20074;-64
2022/03/14 10:57:08;;;;;;;5.13;4.93;;;;;;;12.36;64.35;102108.44;6052601;23;20447;-64
2022/03/14 10:59:43;;;;;;;4.30;4.10;;;;;;;12.42;63.90;102111.75;6054143;23;20021;-66
2022/03/14 11:02:12;;;;;;;4.50;4.30;;;;;;;12.42;62.43;102122.28;6053913;23;20034;-66
2022/03/14 11:04:43;;;;;;;4.40;4.20;;;;;;;12.10;64.03;102090.97;6056127;23;20019;-64
2022/03/14 11:07:10;;;;;;;4.30;4.10;;;;;;;12.23;63.58;102096.66;6047626;23;20945;-66
2022/03/14 11:09:37;;;;;;;4.10;3.90;;;;;;;12.24;63.00;102103.63;6060031;23;20467;-64
2022/03/14 11:12:07;;;;;;;5.60;5.40;;;;;;;12.63;62.62;102126.75;6059853;23;20050;-63
2022/03/14 11:14:33;;;;;;;4.25;4.05;;;;;;;12.45;61.06;102087.94;6049455;23;20428;-64
2022/03/14 11:17:19;;;;;;;5.45;5.25;;;;;;;12.36;61.11;102131.28;6047424;23;20294;-64
2022/03/14 11:19:46;;;;;;;4.10;3.90;;;;;;;11.26;62.82;101970.31;6048484;23;20408;-64
2022/03/14 11:22:14;;;;;;;4.82;4.47;;;;;;;12.36;62.25;102128.63;6059797;23;20058;-64
2022/03/14 11:24:52;;;;;;;4.60;4.40;;;;;;;12.28;62.25;102080.69;6055851;23;20028;-64
2022/03/14 11:27:26;;;;;;;4.25;4.05;;;;;;;12.19;61.33;102121.38;6051742;23;20086;-65
2022/03/14 11:30:00;;;;;;;5.50;5.20;;;;;;;12.06;61.81;102112.19;6057058;23;20191;-64
2022/03/14 11:32:27;;;;;;;4.10;3.90;;;;;;;12.18;61.41;102132.81;6042021;23;20393;-63